sensor_id;sensor_type;location;lat;lon;timestamp;pressure;altitude;pressure_sealevel;temperature;humidity
40788;BME280;26497;52.494;7.546;2023-03-14T00:00:53;98234.75;;;15.02;74.63
40788;BME280;26497;52.494;7.546;2023-03-14T00:03:20;98223.13;;;15.04;74.93
40788;BME280;26497;52.494;7.546;2023-03-14T00:05:48;98239.13;;;15.03;74.92
40788;BME280;26497;52.494;7.546;2023-03-14T00:08:15;98240.59;;;14.93;76.05
40788;BME280;26497;52.494;7.546;2023-03-14T00:10:42;98224.34;;;14.83;76.84
40788;BME280;26497;52.494;7.546;2023-03-14T00:13:09;98236.28;;;15.06;76.72
40788;BME280;26497;52.494;7.546;2023-03-14T00:15:36;98229.72;;;14.97;76.73
40788;BME280;26497;52.494;7.546;2023-03-14T00:18:05;98225.53;;;14.45;78.65
40788;BME280;26497;52.494;7.546;2023-03-14T00:20:32;98236.31;;;14.58;78.09
40788;BME280;26497;52.494;7.546;2023-03-14T00:22:59;98231.16;;;14.55;77.82
40788;BME280;26497;52.494;7.546;2023-03-14T00:25:26;98223.16;;;14.72;76.69
40788;BME280;26497;52.494;7.546;2023-03-14T00:27:53;98226.72;;;14.87;75.70
40788;BME280;26497;52.494;7.546;2023-03-14T00:30:20;98223.47;;;14.98;75.09
40788;BME280;26497;52.494;7.546;2023-03-14T00:32:48;98218.56;;;15.07;73.99
40788;BME280;26497;52.494;7.546;2023-03-14T00:35:16;98212.63;;;15.17;73.43
40788;BME280;26497;52.494;7.546;2023-03-14T00:37:43;98219.78;;;15.31;72.34
40788;BME280;26497;52.494;7.546;2023-03-14T00:40:11;98224.75;;;14.91;73.69
40788;BME280;26497;52.494;7.546;2023-03-14T00:42:38;98215.78;;;14.78;74.29
40788;BME280;26497;52.494;7.546;2023-03-14T00:45:07;98210.63;;;15.07;72.86
40788;BME280;26497;52.494;7.546;2023-03-14T00:47:34;98203.78;;;15.02;72.25
40788;BME280;26497;52.494;7.546;2023-03-14T00:50:01;98197.66;;;15.16;71.67
40788;BME280;26497;52.494;7.546;2023-03-14T00:52:30;98189.56;;;15.03;71.58
40788;BME280;26497;52.494;7.546;2023-03-14T00:54:57;98176.94;;;15.07;71.15
40788;BME280;26497;52.494;7.546;2023-03-14T00:57:24;98171.38;;;15.12;70.89
40788;BME280;26497;52.494;7.546;2023-03-14T00:59:51;98157.25;;;14.81;71.59
40788;BME280;26497;52.494;7.546;2023-03-14T01:02:19;98153.47;;;14.85;71.24
40788;BME280;26497;52.494;7.546;2023-03-14T01:04:47;98141.47;;;14.94;71.20
40788;BME280;26497;52.494;7.546;2023-03-14T01:07:15;98151.84;;;14.82;71.06
40788;BME280;26497;52.494;7.546;2023-03-14T01:09:43;98153.13;;;14.75;71.67
40788;BME280;26497;52.494;7.546;2023-03-14T01:12:11;98154.00;;;14.76;71.55
40788;BME280;26497;52.494;7.546;2023-03-14T01:14:38;98133.47;;;14.63;71.75
40788;BME280;26497;52.494;7.546;2023-03-14T01:17:05;98133.63;;;14.60;72.00
40788;BME280;26497;52.494;7.546;2023-03-14T01:19:32;98142.06;;;14.67;71.88
40788;BME280;26497;52.494;7.546;2023-03-14T01:21:59;98153.72;;;14.80;71.12
40788;BME280;26497;52.494;7.546;2023-03-14T01:24:26;98144.63;;;15.00;69.95
40788;BME280;26497;52.494;7.546;2023-03-14T01:26:55;98147.88;;;14.89;70.34
40788;BME280;26497;52.494;7.546;2023-03-14T01:29:22;98134.53;;;14.91;70.58
40788;BME280;26497;52.494;7.546;2023-03-14T01:31:49;98153.06;;;15.07;69.12
40788;BME280;26497;52.494;7.546;2023-03-14T01:34:16;98136.59;;;14.86;69.89
40788;BME280;26497;52.494;7.546;2023-03-14T01:36:43;98140.56;;;14.79;69.75
40788;BME280;26497;52.494;7.546;2023-03-14T01:39:10;98139.88;;;14.75;70.35
40788;BME280;26497;52.494;7.546;2023-03-14T01:41:40;98141.88;;;14.71;70.32
40788;BME280;26497;52.494;7.546;2023-03-14T01:44:11;98147.22;;;14.86;69.56
40788;BME280;26497;52.494;7.546;2023-03-14T01:46:39;98147.66;;;14.78;69.41
40788;BME280;26497;52.494;7.546;2023-03-14T01:49:17;98152.75;;;14.97;69.25
40788;BME280;26497;52.494;7.546;2023-03-14T01:51:51;98160.91;;;14.94;69.05
40788;BME280;26497;52.494;7.546;2023-03-14T01:54:24;98161.66;;;14.96;68.68
40788;BME280;26497;52.494;7.546;2023-03-14T01:56:56;98154.88;;;15.07;68.36
40788;BME280;26497;52.494;7.546;2023-03-14T01:59:26;98152.81;;;15.12;67.82
40788;BME280;26497;52.494;7.546;2023-03-14T02:01:55;98149.56;;;15.07;67.44
40788;BME280;26497;52.494;7.546;2023-03-14T02:04:23;98150.72;;;15.17;66.97
40788;BME280;26497;52.494;7.546;2023-03-14T02:06:59;98145.78;;;15.11;67.47
40788;BME280;26497;52.494;7.546;2023-03-14T02:09:30;98157.16;;;15.13;67.82
40788;BME280;26497;52.494;7.546;2023-03-14T02:11:58;98158.44;;;14.91;68.91
40788;BME280;26497;52.494;7.546;2023-03-14T02:14:31;98146.31;;;14.55;70.56
40788;BME280;26497;52.494;7.546;2023-03-14T02:16:59;98147.00;;;14.26;72.42
40788;BME280;26497;52.494;7.546;2023-03-14T02:19:43;98154.88;;;14.28;72.60
40788;BME280;26497;52.494;7.546;2023-03-14T02:22:14;98154.19;;;14.40;71.46
40788;BME280;26497;52.494;7.546;2023-03-14T02:24:50;98157.78;;;14.71;70.54
40788;BME280;26497;52.494;7.546;2023-03-14T02:27:26;98160.00;;;14.31;71.79
40788;BME280;26497;52.494;7.546;2023-03-14T02:29:56;98156.41;;;14.48;71.38
40788;BME280;26497;52.494;7.546;2023-03-14T02:32:26;98157.94;;;14.36;71.44
40788;BME280;26497;52.494;7.546;2023-03-14T02:34:57;98160.25;;;14.42;71.10
40788;BME280;26497;52.494;7.546;2023-03-14T02:37:30;98151.09;;;14.32;71.88
40788;BME280;26497;52.494;7.546;2023-03-14T02:39:59;98138.78;;;14.47;71.75
40788;BME280;26497;52.494;7.546;2023-03-14T02:42:28;98146.56;;;14.50;71.51
40788;BME280;26497;52.494;7.546;2023-03-14T02:47:52;98140.56;;;14.47;70.98
40788;BME280;26497;52.494;7.546;2023-03-14T02:50:23;98136.88;;;14.65;70.10
40788;BME280;26497;52.494;7.546;2023-03-14T02:52:51;98137.75;;;14.50;70.24
40788;BME280;26497;52.494;7.546;2023-03-14T02:55:20;98141.69;;;14.42;71.12
40788;BME280;26497;52.494;7.546;2023-03-14T02:57:50;98132.44;;;14.50;70.83
40788;BME280;26497;52.494;7.546;2023-03-14T03:00:18;98139.13;;;14.41;70.57
40788;BME280;26497;52.494;7.546;2023-03-14T03:02:46;98130.94;;;14.29;70.58
40788;BME280;26497;52.494;7.546;2023-03-14T03:05:13;98141.78;;;14.41;70.01
40788;BME280;26497;52.494;7.546;2023-03-14T03:07:40;98145.38;;;14.24;70.32
40788;BME280;26497;52.494;7.546;2023-03-14T03:10:09;98146.13;;;14.26;70.46
40788;BME280;26497;52.494;7.546;2023-03-14T03:12:36;98139.47;;;14.19;69.86
40788;BME280;26497;52.494;7.546;2023-03-14T03:15:06;98139.31;;;14.38;69.32
40788;BME280;26497;52.494;7.546;2023-03-14T03:17:33;98140.81;;;14.58;68.02
40788;BME280;26497;52.494;7.546;2023-03-14T03:20:00;98143.56;;;14.40;67.94
40788;BME280;26497;52.494;7.546;2023-03-14T03:22:29;98145.09;;;14.60;67.21
40788;BME280;26497;52.494;7.546;2023-03-14T03:24:56;98133.03;;;14.55;68.04
40788;BME280;26497;52.494;7.546;2023-03-14T03:27:23;98151.78;;;14.52;68.85
40788;BME280;26497;52.494;7.546;2023-03-14T03:29:50;98129.13;;;14.14;70.03
40788;BME280;26497;52.494;7.546;2023-03-14T03:32:19;98138.34;;;14.23;70.59
40788;BME280;26497;52.494;7.546;2023-03-14T03:34:46;98137.19;;;14.28;70.30
40788;BME280;26497;52.494;7.546;2023-03-14T03:37:13;98142.03;;;14.04;71.13
40788;BME280;26497;52.494;7.546;2023-03-14T03:39:40;98144.59;;;13.90;72.29
40788;BME280;26497;52.494;7.546;2023-03-14T03:42:07;98134.00;;;13.90;71.50
40788;BME280;26497;52.494;7.546;2023-03-14T03:44:35;98153.28;;;13.42;71.81
40788;BME280;26497;52.494;7.546;2023-03-14T03:47:03;98154.72;;;13.48;71.47
40788;BME280;26497;52.494;7.546;2023-03-14T03:49:32;98165.00;;;13.54;70.51
40788;BME280;26497;52.494;7.546;2023-03-14T03:51:59;98143.66;;;13.57;71.06
40788;BME280;26497;52.494;7.546;2023-03-14T03:54:27;98155.13;;;13.57;70.95
40788;BME280;26497;52.494;7.546;2023-03-14T03:56:55;98149.38;;;13.49;71.20
40788;BME280;26497;52.494;7.546;2023-03-14T03:59:22;98154.19;;;13.23;72.75
40788;BME280;26497;52.494;7.546;2023-03-14T04:01:50;98143.44;;;13.26;74.57
40788;BME280;26497;52.494;7.546;2023-03-14T04:04:17;98161.50;;;13.01;75.98
40788;BME280;26497;52.494;7.546;2023-03-14T04:06:45;98158.28;;;12.59;78.84
40788;BME280;26497;52.494;7.546;2023-03-14T04:09:12;98157.69;;;12.71;79.29
40788;BME280;26497;52.494;7.546;2023-03-14T04:11:40;98165.38;;;12.58;80.80
40788;BME280;26497;52.494;7.546;2023-03-14T04:14:07;98165.47;;;12.37;81.99
40788;BME280;26497;52.494;7.546;2023-03-14T04:16:35;98167.31;;;12.72;81.09
40788;BME280;26497;52.494;7.546;2023-03-14T04:19:02;98165.06;;;12.82;80.28
40788;BME280;26497;52.494;7.546;2023-03-14T04:21:29;98161.63;;;12.62;81.99
40788;BME280;26497;52.494;7.546;2023-03-14T04:23:58;98150.09;;;12.63;82.16
40788;BME280;26497;52.494;7.546;2023-03-14T04:26:25;98145.91;;;12.59;83.06
40788;BME280;26497;52.494;7.546;2023-03-14T04:28:53;98143.88;;;12.64;82.54
40788;BME280;26497;52.494;7.546;2023-03-14T04:31:21;98143.66;;;12.51;83.47
40788;BME280;26497;52.494;7.546;2023-03-14T04:33:48;98136.59;;;12.52;83.27
40788;BME280;26497;52.494;7.546;2023-03-14T04:36:15;98142.75;;;12.33;84.11
40788;BME280;26497;52.494;7.546;2023-03-14T04:38:42;98148.38;;;12.45;84.04
40788;BME280;26497;52.494;7.546;2023-03-14T04:41:11;98142.97;;;12.65;82.92
40788;BME280;26497;52.494;7.546;2023-03-14T04:43:38;98142.31;;;12.60;83.36
40788;BME280;26497;52.494;7.546;2023-03-14T04:46:06;98143.22;;;12.78;82.38
40788;BME280;26497;52.494;7.546;2023-03-14T04:48:33;98130.84;;;12.96;81.21
40788;BME280;26497;52.494;7.546;2023-03-14T04:51:00;98140.66;;;12.94;81.32
40788;BME280;26497;52.494;7.546;2023-03-14T04:53:27;98142.81;;;12.86;82.33
40788;BME280;26497;52.494;7.546;2023-03-14T04:55:55;98126.13;;;13.03;81.52
40788;BME280;26497;52.494;7.546;2023-03-14T04:58:24;98131.00;;;12.93;82.17
40788;BME280;26497;52.494;7.546;2023-03-14T05:00:52;98131.41;;;12.86;82.29
40788;BME280;26497;52.494;7.546;2023-03-14T05:03:19;98130.69;;;12.82;82.79
40788;BME280;26497;52.494;7.546;2023-03-14T05:05:47;98127.91;;;13.03;82.04
40788;BME280;26497;52.494;7.546;2023-03-14T05:08:14;98126.91;;;13.05;82.01
40788;BME280;26497;52.494;7.546;2023-03-14T05:10:41;98125.19;;;13.04;81.87
40788;BME280;26497;52.494;7.546;2023-03-14T05:13:08;98129.13;;;13.13;82.14
40788;BME280;26497;52.494;7.546;2023-03-14T05:15:36;98127.97;;;13.19;80.94
40788;BME280;26497;52.494;7.546;2023-03-14T05:18:04;98118.06;;;13.22;81.10
40788;BME280;26497;52.494;7.546;2023-03-14T05:20:31;98113.03;;;13.18;81.34
40788;BME280;26497;52.494;7.546;2023-03-14T05:22:58;98114.03;;;12.97;82.11
40788;BME280;26497;52.494;7.546;2023-03-14T05:25:25;98110.16;;;13.05;81.48
40788;BME280;26497;52.494;7.546;2023-03-14T05:27:54;98099.09;;;12.79;82.85
40788;BME280;26497;52.494;7.546;2023-03-14T05:30:21;98115.59;;;13.02;82.10
40788;BME280;26497;52.494;7.546;2023-03-14T05:32:50;98108.28;;;13.07;80.56
40788;BME280;26497;52.494;7.546;2023-03-14T05:35:17;98102.84;;;12.75;82.18
40788;BME280;26497;52.494;7.546;2023-03-14T05:37:44;98094.75;;;12.78;81.93
40788;BME280;26497;52.494;7.546;2023-03-14T05:40:12;98096.63;;;12.76;81.59
40788;BME280;26497;52.494;7.546;2023-03-14T05:42:39;98096.09;;;12.87;80.97
40788;BME280;26497;52.494;7.546;2023-03-14T05:45:07;98091.25;;;12.77;81.03
40788;BME280;26497;52.494;7.546;2023-03-14T05:47:34;98094.75;;;12.95;80.36
40788;BME280;26497;52.494;7.546;2023-03-14T05:50:03;98093.28;;;12.90;80.69
40788;BME280;26497;52.494;7.546;2023-03-14T05:52:31;98091.78;;;13.02;79.45
40788;BME280;26497;52.494;7.546;2023-03-14T05:54:58;98087.66;;;13.13;79.14
40788;BME280;26497;52.494;7.546;2023-03-14T05:57:25;98090.09;;;12.83;79.59
40788;BME280;26497;52.494;7.546;2023-03-14T05:59:52;98083.69;;;13.05;78.69
40788;BME280;26497;52.494;7.546;2023-03-14T06:02:20;98090.00;;;13.02;78.63
40788;BME280;26497;52.494;7.546;2023-03-14T06:04:47;98088.66;;;13.11;77.69
40788;BME280;26497;52.494;7.546;2023-03-14T06:07:15;98098.72;;;13.22;77.87
40788;BME280;26497;52.494;7.546;2023-03-14T06:09:42;98096.41;;;13.32;77.15
40788;BME280;26497;52.494;7.546;2023-03-14T06:12:09;98098.13;;;13.50;75.95
40788;BME280;26497;52.494;7.546;2023-03-14T06:14:36;98093.69;;;13.33;75.78
40788;BME280;26497;52.494;7.546;2023-03-14T06:17:04;98094.66;;;13.15;77.10
40788;BME280;26497;52.494;7.546;2023-03-14T06:19:31;98094.72;;;13.31;75.96
40788;BME280;26497;52.494;7.546;2023-03-14T06:21:58;98093.13;;;13.62;74.13
40788;BME280;26497;52.494;7.546;2023-03-14T06:24:26;98096.75;;;13.43;74.40
40788;BME280;26497;52.494;7.546;2023-03-14T06:26:53;98097.03;;;13.54;74.38
40788;BME280;26497;52.494;7.546;2023-03-14T06:29:20;98092.19;;;13.63;74.20
40788;BME280;26497;52.494;7.546;2023-03-14T06:31:47;98091.34;;;13.78;73.38
40788;BME280;26497;52.494;7.546;2023-03-14T06:34:15;98092.09;;;14.12;72.07
40788;BME280;26497;52.494;7.546;2023-03-14T06:36:42;98077.34;;;14.55;69.80
40788;BME280;26497;52.494;7.546;2023-03-14T06:39:09;98077.16;;;15.19;67.25
40788;BME280;26497;52.494;7.546;2023-03-14T06:41:38;98074.13;;;15.69;64.58
40788;BME280;26497;52.494;7.546;2023-03-14T06:44:05;98081.69;;;16.04;62.95
40788;BME280;26497;52.494;7.546;2023-03-14T06:46:33;98084.13;;;16.21;60.64
40788;BME280;26497;52.494;7.546;2023-03-14T06:49:00;98077.25;;;15.46;63.22
40788;BME280;26497;52.494;7.546;2023-03-14T06:51:27;98071.66;;;15.22;64.77
40788;BME280;26497;52.494;7.546;2023-03-14T06:53:54;98087.00;;;15.02;66.14
40788;BME280;26497;52.494;7.546;2023-03-14T06:56:21;98076.19;;;15.63;64.64
40788;BME280;26497;52.494;7.546;2023-03-14T06:58:50;98084.72;;;15.83;62.15
40788;BME280;26497;52.494;7.546;2023-03-14T07:01:23;98091.50;;;15.45;62.80
40788;BME280;26497;52.494;7.546;2023-03-14T07:03:51;98090.06;;;15.40;63.25
40788;BME280;26497;52.494;7.546;2023-03-14T07:06:18;98093.56;;;15.40;64.35
40788;BME280;26497;52.494;7.546;2023-03-14T07:08:45;98099.34;;;15.61;63.16
40788;BME280;26497;52.494;7.546;2023-03-14T07:11:12;98097.69;;;15.01;64.23
40788;BME280;26497;52.494;7.546;2023-03-14T07:13:40;98104.41;;;14.92;65.73
40788;BME280;26497;52.494;7.546;2023-03-14T07:16:09;98105.41;;;15.20;64.97
40788;BME280;26497;52.494;7.546;2023-03-14T07:18:36;98103.88;;;15.01;65.72
40788;BME280;26497;52.494;7.546;2023-03-14T07:21:04;98108.66;;;14.95;66.20
40788;BME280;26497;52.494;7.546;2023-03-14T07:23:32;98112.53;;;14.42;68.42
40788;BME280;26497;52.494;7.546;2023-03-14T07:25:59;98116.75;;;14.30;69.74
40788;BME280;26497;52.494;7.546;2023-03-14T07:28:26;98119.13;;;14.51;69.96
40788;BME280;26497;52.494;7.546;2023-03-14T07:30:54;98122.00;;;14.47;69.91
40788;BME280;26497;52.494;7.546;2023-03-14T07:33:22;98130.66;;;14.02;71.78
40788;BME280;26497;52.494;7.546;2023-03-14T07:35:50;98123.91;;;14.12;72.84
40788;BME280;26497;52.494;7.546;2023-03-14T07:38:17;98128.25;;;13.81;74.43
40788;BME280;26497;52.494;7.546;2023-03-14T07:40:44;98138.13;;;13.62;75.95
40788;BME280;26497;52.494;7.546;2023-03-14T07:43:11;98136.09;;;13.67;75.88
40788;BME280;26497;52.494;7.546;2023-03-14T07:45:38;98136.88;;;13.69;76.21
40788;BME280;26497;52.494;7.546;2023-03-14T07:48:06;98141.28;;;13.52;77.26
40788;BME280;26497;52.494;7.546;2023-03-14T07:50:34;98138.75;;;13.67;77.34
40788;BME280;26497;52.494;7.546;2023-03-14T07:53:02;98135.31;;;13.65;77.50
40788;BME280;26497;52.494;7.546;2023-03-14T07:55:29;98137.34;;;13.60;77.56
40788;BME280;26497;52.494;7.546;2023-03-14T07:57:56;98147.38;;;13.70;77.93
40788;BME280;26497;52.494;7.546;2023-03-14T08:00:23;98145.09;;;13.96;77.34
40788;BME280;26497;52.494;7.546;2023-03-14T08:02:51;98148.25;;;13.87;78.24
40788;BME280;26497;52.494;7.546;2023-03-14T08:05:18;98129.69;;;13.71;78.59
40788;BME280;26497;52.494;7.546;2023-03-14T08:07:46;98142.41;;;13.64;79.11
40788;BME280;26497;52.494;7.546;2023-03-14T08:10:14;98138.16;;;13.78;79.24
40788;BME280;26497;52.494;7.546;2023-03-14T08:12:48;98137.19;;;13.63;79.66
40788;BME280;26497;52.494;7.546;2023-03-14T08:15:15;98138.25;;;13.76;79.54
40788;BME280;26497;52.494;7.546;2023-03-14T08:17:42;98140.31;;;13.87;79.08
40788;BME280;26497;52.494;7.546;2023-03-14T08:20:11;98146.47;;;13.88;79.49
40788;BME280;26497;52.494;7.546;2023-03-14T08:22:38;98138.44;;;14.05;79.18
40788;BME280;26497;52.494;7.546;2023-03-14T08:25:08;98147.66;;;13.98;78.93
40788;BME280;26497;52.494;7.546;2023-03-14T08:27:35;98139.63;;;13.99;79.83
40788;BME280;26497;52.494;7.546;2023-03-14T08:30:05;98145.44;;;13.90;80.36
40788;BME280;26497;52.494;7.546;2023-03-14T08:32:33;98153.59;;;13.69;80.84
40788;BME280;26497;52.494;7.546;2023-03-14T08:35:00;98153.38;;;13.74;81.32
40788;BME280;26497;52.494;7.546;2023-03-14T08:37:27;98150.84;;;14.05;80.24
40788;BME280;26497;52.494;7.546;2023-03-14T08:39:54;98163.66;;;13.96;80.40
40788;BME280;26497;52.494;7.546;2023-03-14T08:42:23;98169.38;;;13.55;82.06
40788;BME280;26497;52.494;7.546;2023-03-14T08:44:51;98164.47;;;13.65;82.85
40788;BME280;26497;52.494;7.546;2023-03-14T08:47:18;98163.88;;;13.92;82.10
40788;BME280;26497;52.494;7.546;2023-03-14T08:49:45;98172.53;;;13.79;81.80
40788;BME280;26497;52.494;7.546;2023-03-14T08:52:12;98180.63;;;13.76;81.78
40788;BME280;26497;52.494;7.546;2023-03-14T08:54:42;98215.69;;;13.81;81.38
40788;BME280;26497;52.494;7.546;2023-03-14T08:57:10;98232.38;;;13.66;79.17
40788;BME280;26497;52.494;7.546;2023-03-14T08:59:39;98236.63;;;13.68;76.90
40788;BME280;26497;52.494;7.546;2023-03-14T09:02:08;98238.19;;;13.37;76.43
40788;BME280;26497;52.494;7.546;2023-03-14T09:04:36;98257.94;;;13.49;76.33
40788;BME280;26497;52.494;7.546;2023-03-14T09:07:03;98262.75;;;13.59;75.99
40788;BME280;26497;52.494;7.546;2023-03-14T09:09:30;98279.56;;;13.57;74.72
40788;BME280;26497;52.494;7.546;2023-03-14T09:11:58;98294.22;;;13.65;73.16
40788;BME280;26497;52.494;7.546;2023-03-14T09:14:25;98311.09;;;13.62;71.13
40788;BME280;26497;52.494;7.546;2023-03-14T09:16:53;98327.63;;;13.31;71.33
40788;BME280;26497;52.494;7.546;2023-03-14T09:19:21;98338.06;;;13.34;71.16
40788;BME280;26497;52.494;7.546;2023-03-14T09:21:48;98358.84;;;13.24;70.80
40788;BME280;26497;52.494;7.546;2023-03-14T09:24:15;98362.31;;;12.88;70.75
40788;BME280;26497;52.494;7.546;2023-03-14T09:26:42;98389.00;;;12.62;71.13
40788;BME280;26497;52.494;7.546;2023-03-14T09:29:10;98395.59;;;12.33;71.31
40788;BME280;26497;52.494;7.546;2023-03-14T09:31:37;98411.41;;;12.34;70.98
40788;BME280;26497;52.494;7.546;2023-03-14T09:34:05;98437.28;;;12.05;70.25
40788;BME280;26497;52.494;7.546;2023-03-14T09:36:32;98454.19;;;11.79;69.42
40788;BME280;26497;52.494;7.546;2023-03-14T09:39:00;98466.88;;;11.25;69.76
40788;BME280;26497;52.494;7.546;2023-03-14T09:41:29;98477.78;;;11.15;69.35
40788;BME280;26497;52.494;7.546;2023-03-14T09:44:04;98481.31;;;10.90;69.42
40788;BME280;26497;52.494;7.546;2023-03-14T09:46:34;98495.88;;;10.77;69.10
40788;BME280;26497;52.494;7.546;2023-03-14T09:49:02;98498.16;;;10.09;70.03
40788;BME280;26497;52.494;7.546;2023-03-14T09:51:31;98516.34;;;9.61;72.37
40788;BME280;26497;52.494;7.546;2023-03-14T09:53:58;98523.28;;;9.34;73.70
40788;BME280;26497;52.494;7.546;2023-03-14T09:56:31;98535.59;;;9.33;73.58
40788;BME280;26497;52.494;7.546;2023-03-14T09:59:01;98549.38;;;9.71;72.97
40788;BME280;26497;52.494;7.546;2023-03-14T10:01:32;98569.38;;;9.47;72.43
40788;BME280;26497;52.494;7.546;2023-03-14T10:04:05;98570.72;;;9.61;71.15
40788;BME280;26497;52.494;7.546;2023-03-14T10:06:34;98582.44;;;9.50;71.40
40788;BME280;26497;52.494;7.546;2023-03-14T10:09:03;98593.22;;;9.09;72.02
40788;BME280;26497;52.494;7.546;2023-03-14T10:11:31;98607.19;;;9.74;71.00
40788;BME280;26497;52.494;7.546;2023-03-14T10:14:07;98624.91;;;9.68;71.17
40788;BME280;26497;52.494;7.546;2023-03-14T10:16:38;98643.84;;;9.51;71.29
40788;BME280;26497;52.494;7.546;2023-03-14T10:19:11;98651.31;;;10.25;70.53
40788;BME280;26497;52.494;7.546;2023-03-14T10:21:42;98656.50;;;10.56;69.20
40788;BME280;26497;52.494;7.546;2023-03-14T10:24:27;98665.81;;;10.38;67.52
40788;BME280;26497;52.494;7.546;2023-03-14T10:26:57;98673.03;;;10.61;67.84
40788;BME280;26497;52.494;7.546;2023-03-14T10:29:29;98685.06;;;11.23;67.67
40788;BME280;26497;52.494;7.546;2023-03-14T10:32:00;98700.91;;;11.48;66.28
40788;BME280;26497;52.494;7.546;2023-03-14T10:34:31;98702.06;;;11.64;64.55
40788;BME280;26497;52.494;7.546;2023-03-14T10:37:17;98702.91;;;11.65;63.02
40788;BME280;26497;52.494;7.546;2023-03-14T10:39:49;98715.19;;;11.66;65.20
40788;BME280;26497;52.494;7.546;2023-03-14T10:42:21;98730.94;;;12.18;64.43
40788;BME280;26497;52.494;7.546;2023-03-14T10:44:55;98739.03;;;12.37;62.55
40788;BME280;26497;52.494;7.546;2023-03-14T10:47:25;98748.44;;;12.45;63.18
40788;BME280;26497;52.494;7.546;2023-03-14T10:49:54;98747.81;;;12.60;62.72
40788;BME280;26497;52.494;7.546;2023-03-14T10:52:25;98764.09;;;12.95;60.21
40788;BME280;26497;52.494;7.546;2023-03-14T10:54:57;98765.75;;;12.98;60.06
40788;BME280;26497;52.494;7.546;2023-03-14T10:57:26;98791.28;;;12.99;62.26
40788;BME280;26497;52.494;7.546;2023-03-14T10:59:55;98793.97;;;13.42;59.79
40788;BME280;26497;52.494;7.546;2023-03-14T11:02:39;98797.47;;;13.42;60.05
40788;BME280;26497;52.494;7.546;2023-03-14T11:05:25;98814.84;;;13.70;59.13
40788;BME280;26497;52.494;7.546;2023-03-14T11:08:02;98833.22;;;13.75;59.06
40788;BME280;26497;52.494;7.546;2023-03-14T11:10:33;98833.09;;;13.78;59.51
40788;BME280;26497;52.494;7.546;2023-03-14T11:13:17;98838.94;;;13.64;60.22
40788;BME280;26497;52.494;7.546;2023-03-14T11:15:58;98857.53;;;13.42;58.28
40788;BME280;26497;52.494;7.546;2023-03-14T11:21:32;98882.91;;;12.30;63.04
40788;BME280;26497;52.494;7.546;2023-03-14T11:24:23;98887.94;;;12.13;63.41
40788;BME280;26497;52.494;7.546;2023-03-14T11:26:58;98892.97;;;12.44;65.30
40788;BME280;26497;52.494;7.546;2023-03-14T11:29:36;98898.31;;;12.90;61.23
40788;BME280;26497;52.494;7.546;2023-03-14T11:32:13;98905.75;;;13.50;62.24
40788;BME280;26497;52.494;7.546;2023-03-14T11:34:49;98906.97;;;13.41;62.17
40788;BME280;26497;52.494;7.546;2023-03-14T11:37:25;98913.47;;;13.10;62.21
40788;BME280;26497;52.494;7.546;2023-03-14T11:40:02;98919.44;;;12.92;63.63
40788;BME280;26497;52.494;7.546;2023-03-14T11:42:33;98921.44;;;13.09;59.43
40788;BME280;26497;52.494;7.546;2023-03-14T11:45:01;98941.91;;;13.51;57.25
40788;BME280;26497;52.494;7.546;2023-03-14T11:47:33;98943.75;;;13.49;59.12
40788;BME280;26497;52.494;7.546;2023-03-14T11:50:07;98958.34;;;13.60;57.41
40788;BME280;26497;52.494;7.546;2023-03-14T11:52:46;98964.78;;;13.75;57.05
40788;BME280;26497;52.494;7.546;2023-03-14T11:55:26;98979.34;;;13.64;56.79
40788;BME280;26497;52.494;7.546;2023-03-14T11:58:00;98986.56;;;13.61;55.17
40788;BME280;26497;52.494;7.546;2023-03-14T12:00:29;98997.50;;;13.74;56.78
40788;BME280;26497;52.494;7.546;2023-03-14T12:03:01;99005.47;;;14.16;55.08
40788;BME280;26497;52.494;7.546;2023-03-14T12:05:48;99014.78;;;14.27;53.42
40788;BME280;26497;52.494;7.546;2023-03-14T12:08:39;99019.91;;;14.09;52.72
40788;BME280;26497;52.494;7.546;2023-03-14T12:11:18;99032.75;;;13.98;53.78
40788;BME280;26497;52.494;7.546;2023-03-14T12:13:49;99041.75;;;13.94;51.87
40788;BME280;26497;52.494;7.546;2023-03-14T12:16:33;99033.59;;;13.54;51.58
40788;BME280;26497;52.494;7.546;2023-03-14T12:19:36;99051.94;;;13.35;49.41
40788;BME280;26497;52.494;7.546;2023-03-14T12:25:00;99072.84;;;13.42;50.14
40788;BME280;26497;52.494;7.546;2023-03-14T12:28:16;99076.03;;;13.52;50.75
40788;BME280;26497;52.494;7.546;2023-03-14T12:30:45;99097.63;;;13.16;51.77
40788;BME280;26497;52.494;7.546;2023-03-14T12:33:32;99102.91;;;13.16;52.71
40788;BME280;26497;52.494;7.546;2023-03-14T12:36:11;99108.97;;;13.45;52.01
40788;BME280;26497;52.494;7.546;2023-03-14T12:41:40;99125.53;;;13.00;50.81
40788;BME280;26497;52.494;7.546;2023-03-14T12:44:52;99128.19;;;14.42;47.35
40788;BME280;26497;52.494;7.546;2023-03-14T12:47:53;99140.00;;;14.78;43.15
40788;BME280;26497;52.494;7.546;2023-03-14T12:50:28;99149.56;;;14.15;45.52
40788;BME280;26497;52.494;7.546;2023-03-14T12:56:45;99168.28;;;13.65;44.88
40788;BME280;26497;52.494;7.546;2023-03-14T12:59:31;99171.69;;;13.92;41.59
40788;BME280;26497;52.494;7.546;2023-03-14T13:02:15;99173.13;;;15.31;38.15
40788;BME280;26497;52.494;7.546;2023-03-14T13:04:47;99182.44;;;15.82;37.24
40788;BME280;26497;52.494;7.546;2023-03-14T13:07:33;99187.78;;;16.20;37.33
40788;BME280;26497;52.494;7.546;2023-03-14T13:10:05;99193.75;;;16.44;37.58
40788;BME280;26497;52.494;7.546;2023-03-14T13:12:48;99200.28;;;17.28;34.34
40788;BME280;26497;52.494;7.546;2023-03-14T13:15:24;99209.84;;;18.17;37.62
40788;BME280;26497;52.494;7.546;2023-03-14T13:17:59;99218.38;;;18.40;31.98
40788;BME280;26497;52.494;7.546;2023-03-14T13:20:32;99225.72;;;18.03;33.94
40788;BME280;26497;52.494;7.546;2023-03-14T13:23:01;99234.44;;;17.02;35.62
40788;BME280;26497;52.494;7.546;2023-03-14T13:25:34;99246.50;;;16.73;35.02
40788;BME280;26497;52.494;7.546;2023-03-14T13:28:03;99251.53;;;16.60;35.08
40788;BME280;26497;52.494;7.546;2023-03-14T13:30:40;99263.22;;;15.98;34.51